createdAt,value
2022-12-15T00:00:00.131Z,987.06
2022-12-15T00:05:00.100Z,987.15
2022-12-15T00:10:00.094Z,987.11
2022-12-15T00:15:00.080Z,987.21
2022-12-15T00:20:00.119Z,987.13
2022-12-15T00:25:00.097Z,987.19
2022-12-15T00:30:00.089Z,987.08
2022-12-15T00:35:00.133Z,987.07
2022-12-15T00:40:00.145Z,987.05
2022-12-15T00:45:00.099Z,987.17
2022-12-15T00:50:00.087Z,987.29
2022-12-15T00:55:00.114Z,987.24
2022-12-15T01:00:00.190Z,987.37
2022-12-15T01:05:00.095Z,987.39
2022-12-15T01:10:00.175Z,987.43
2022-12-15T01:15:00.090Z,987.59
2022-12-15T01:20:00.125Z,987.61
2022-12-15T01:25:00.100Z,987.65
2022-12-15T01:30:00.135Z,987.7
2022-12-15T01:35:00.101Z,987.76
2022-12-15T01:40:00.127Z,987.82
2022-12-15T01:45:00.082Z,987.93
2022-12-15T01:50:00.111Z,988.03
2022-12-15T01:55:00.103Z,987.94
2022-12-15T02:00:00.154Z,987.83
2022-12-15T02:05:00.104Z,987.92
2022-12-15T02:10:00.120Z,987.97
2022-12-15T02:15:00.113Z,988.1
2022-12-15T02:20:00.132Z,988.12
2022-12-15T02:25:00.097Z,988.16
2022-12-15T02:30:00.107Z,988.18
2022-12-15T02:35:00.098Z,988.21
2022-12-15T02:40:00.122Z,988.15
2022-12-15T02:45:00.123Z,988.32
2022-12-15T02:50:00.108Z,988.38
2022-12-15T02:55:00.097Z,988.33
2022-12-15T03:00:00.147Z,988.47
2022-12-15T03:05:00.098Z,988.64
2022-12-15T03:10:00.099Z,988.78
2022-12-15T03:15:00.099Z,988.8
2022-12-15T03:20:00.208Z,988.82
2022-12-15T03:25:00.104Z,988.93
2022-12-15T03:30:00.104Z,988.89
2022-12-15T03:35:00.117Z,988.85
2022-12-15T03:40:00.124Z,988.95
2022-12-15T03:45:00.113Z,988.86
2022-12-15T03:50:00.110Z,988.89
2022-12-15T03:55:00.112Z,988.89
2022-12-15T04:00:00.129Z,989.06
2022-12-15T04:05:00.131Z,989.08
2022-12-15T04:10:00.108Z,989.12
2022-12-15T04:15:00.105Z,989.13
2022-12-15T04:20:00.161Z,989.23
2022-12-15T04:25:00.118Z,988.71
2022-12-15T04:30:00.093Z,988.76
2022-12-15T04:35:00.117Z,988.75
2022-12-15T04:40:00.140Z,988.88
2022-12-15T04:45:00.108Z,988.82
2022-12-15T04:50:00.143Z,988.9
2022-12-15T04:55:00.120Z,988.99
2022-12-15T05:00:00.206Z,989.13
2022-12-15T05:05:00.186Z,989.17
2022-12-15T05:10:03.101Z,989.26
2022-12-15T05:15:00.132Z,989.35
2022-12-15T05:20:00.249Z,989.31
2022-12-15T05:25:00.101Z,989.27
2022-12-15T05:30:00.126Z,989.29
2022-12-15T05:35:00.143Z,989.44
2022-12-15T05:40:00.124Z,989.4
2022-12-15T05:45:00.104Z,989.53
2022-12-15T05:50:00.117Z,989.6
2022-12-15T05:55:00.124Z,989.61
2022-12-15T06:00:00.140Z,989.61
2022-12-15T06:05:00.151Z,989.77
2022-12-15T06:10:00.109Z,989.79
2022-12-15T06:15:00.101Z,989.86
2022-12-15T06:20:00.155Z,989.87
2022-12-15T06:25:00.126Z,990.04
2022-12-15T06:30:00.134Z,990.12
2022-12-15T06:35:00.128Z,990.16
2022-12-15T06:40:00.138Z,990.28
2022-12-15T06:45:00.128Z,990.39
2022-12-15T06:50:00.121Z,990.4
2022-12-15T06:55:00.133Z,990.3
2022-12-15T07:00:00.247Z,990.54
2022-12-15T07:05:00.107Z,990.57
2022-12-15T07:10:00.089Z,990.63
2022-12-15T07:15:00.129Z,990.66
2022-12-15T07:20:00.144Z,990.57
2022-12-15T07:25:00.106Z,990.55
2022-12-15T07:30:00.110Z,990.71
2022-12-15T07:35:00.142Z,990.87
2022-12-15T07:40:00.130Z,990.85
2022-12-15T07:45:00.107Z,990.92
2022-12-15T07:50:00.102Z,990.89
2022-12-15T07:55:00.114Z,991.02
2022-12-15T08:00:00.192Z,991.02
2022-12-15T08:05:00.119Z,991.07
2022-12-15T08:10:00.108Z,991.25
2022-12-15T08:15:00.107Z,991.26
2022-12-15T08:20:03.496Z,991.17
2022-12-15T08:25:00.119Z,991.38
2022-12-15T08:30:00.162Z,991.23
2022-12-15T08:35:00.081Z,991.3
2022-12-15T08:40:00.174Z,991.22
2022-12-15T08:45:00.239Z,991.24
2022-12-15T08:50:00.125Z,991.29
2022-12-15T08:55:00.138Z,991.36
2022-12-15T09:00:00.308Z,991.43
2022-12-15T09:05:00.184Z,991.48
2022-12-15T09:10:00.280Z,991.47
2022-12-15T09:15:00.136Z,991.47
2022-12-15T09:20:00.161Z,991.63
2022-12-15T09:25:00.124Z,991.59
2022-12-15T09:30:00.160Z,991.49
2022-12-15T09:35:00.148Z,991.46
2022-12-15T09:40:00.143Z,991.48
2022-12-15T09:45:00.323Z,991.58
2022-12-15T09:50:00.130Z,991.65
2022-12-15T09:55:00.168Z,991.63
2022-12-15T10:00:00.172Z,991.75
2022-12-15T10:05:00.145Z,991.74
2022-12-15T10:10:00.142Z,991.84
2022-12-15T10:15:00.173Z,991.77
2022-12-15T10:20:00.266Z,991.87
2022-12-15T10:25:15.520Z,991.91
2022-12-15T10:30:00.220Z,991.96
2022-12-15T10:35:00.209Z,992.07
2022-12-15T10:40:00.130Z,991.88
2022-12-15T10:45:00.131Z,991.96
2022-12-15T10:50:00.103Z,991.95
2022-12-15T10:55:00.121Z,991.98
2022-12-15T11:00:00.167Z,992.06
2022-12-15T11:05:00.113Z,991.9
2022-12-15T11:10:00.166Z,991.86
2022-12-15T11:15:00.113Z,992.06
2022-12-15T11:20:02.917Z,991.94
2022-12-15T11:25:00.148Z,991.93
2022-12-15T11:30:00.120Z,992.01
2022-12-15T11:35:00.105Z,992.04
2022-12-15T11:40:00.160Z,991.99
2022-12-15T11:45:00.130Z,992.06
2022-12-15T11:50:00.109Z,992.05
2022-12-15T11:55:00.104Z,991.91
2022-12-15T12:00:00.261Z,991.82
2022-12-15T12:05:00.112Z,991.91
2022-12-15T12:10:00.131Z,991.89
2022-12-15T12:15:00.129Z,991.84
2022-12-15T12:20:00.150Z,991.83
2022-12-15T12:25:00.142Z,991.8
2022-12-15T12:30:00.138Z,991.9
2022-12-15T12:35:29.732Z,991.87
2022-12-15T12:40:00.129Z,991.91
2022-12-15T12:45:00.107Z,991.87
2022-12-15T12:50:00.126Z,991.76
2022-12-15T12:55:00.102Z,991.83
2022-12-15T13:00:00.161Z,991.7
2022-12-15T13:05:00.147Z,991.87
2022-12-15T13:10:00.099Z,991.88
2022-12-15T13:15:00.134Z,991.79
2022-12-15T13:20:00.155Z,991.83
2022-12-15T13:25:00.119Z,991.69
2022-12-15T13:30:00.130Z,991.78
2022-12-15T13:35:00.128Z,991.7
2022-12-15T13:40:00.129Z,991.78
2022-12-15T13:45:00.126Z,991.68
2022-12-15T13:50:01.944Z,991.63
2022-12-15T13:55:00.156Z,991.65
2022-12-15T14:00:00.226Z,991.65
2022-12-15T14:05:00.150Z,991.7
2022-12-15T14:10:00.143Z,991.64
2022-12-15T14:15:00.123Z,991.71
2022-12-15T14:20:00.115Z,991.84
2022-12-15T14:25:00.106Z,991.84
2022-12-15T14:30:00.936Z,991.87
2022-12-15T14:35:00.117Z,991.82
2022-12-15T14:40:00.173Z,992.01
2022-12-15T14:45:00.131Z,991.91
2022-12-15T14:50:00.122Z,991.87
2022-12-15T14:55:00.114Z,991.94
2022-12-15T15:00:00.257Z,991.96
2022-12-15T15:05:00.134Z,991.88
2022-12-15T15:10:00.132Z,991.82
2022-12-15T15:15:00.135Z,991.77
2022-12-15T15:20:00.156Z,991.74
2022-12-15T15:25:00.143Z,991.73
2022-12-15T15:30:00.144Z,991.74
2022-12-15T15:35:00.187Z,991.67
2022-12-15T15:40:00.161Z,991.79
2022-12-15T15:45:00.144Z,991.82
2022-12-15T15:50:00.138Z,991.8
2022-12-15T15:55:00.172Z,991.93
2022-12-15T16:00:00.214Z,991.9
2022-12-15T16:05:00.166Z,991.89
2022-12-15T16:10:00.179Z,991.85
2022-12-15T16:15:00.125Z,991.97
2022-12-15T16:20:00.134Z,992.05
2022-12-15T16:25:00.133Z,992.13
2022-12-15T16:30:00.175Z,992.1
2022-12-15T16:35:00.106Z,992.19
2022-12-15T16:40:00.182Z,992.25
2022-12-15T16:45:00.131Z,992.29
2022-12-15T16:50:00.196Z,992.29
2022-12-15T16:55:00.130Z,992.34
2022-12-15T17:00:00.189Z,992.45
2022-12-15T17:05:00.146Z,992.48
2022-12-15T17:10:00.101Z,992.45
2022-12-15T17:15:00.125Z,992.84
2022-12-15T17:20:30.178Z,992.32
2022-12-15T17:25:00.157Z,992.36
2022-12-15T17:30:00.268Z,992.38
2022-12-15T17:35:00.137Z,992.29
2022-12-15T17:40:00.133Z,992.29
2022-12-15T17:45:00.239Z,992.22
2022-12-15T17:50:00.141Z,992.14
2022-12-15T17:55:00.137Z,992.15
2022-12-15T18:00:00.211Z,992.11
2022-12-15T18:05:00.148Z,992.25
2022-12-15T18:10:00.213Z,992.29
2022-12-15T18:15:00.102Z,992.26
2022-12-15T18:20:00.218Z,992.25
2022-12-15T18:25:00.102Z,992.34
2022-12-15T18:30:00.235Z,992.36
2022-12-15T18:35:00.130Z,992.39
2022-12-15T18:40:04.392Z,992.4
2022-12-15T18:45:00.095Z,992.52
2022-12-15T18:50:00.116Z,992.57
2022-12-15T18:55:00.244Z,992.42
2022-12-15T19:00:00.204Z,992.34
2022-12-15T19:05:00.114Z,992.4
2022-12-15T19:10:00.105Z,992.4
2022-12-15T19:15:00.121Z,992.5
2022-12-15T19:20:00.136Z,992.52
2022-12-15T19:25:00.130Z,992.28
2022-12-15T19:30:00.165Z,992.38
2022-12-15T19:35:00.114Z,992.34
2022-12-15T19:40:00.135Z,992.35
2022-12-15T19:45:00.118Z,992.4
2022-12-15T19:50:00.181Z,992.39
2022-12-15T19:55:00.144Z,992.4
2022-12-15T20:00:00.167Z,992.39
2022-12-15T20:05:00.128Z,992.29
2022-12-15T20:10:00.131Z,992.21
2022-12-15T20:15:00.150Z,992.07
2022-12-15T20:20:00.199Z,992
2022-12-15T20:25:00.103Z,992.06
2022-12-15T20:30:00.122Z,992.06
2022-12-15T20:35:00.135Z,991.98
2022-12-15T20:40:00.229Z,991.9
2022-12-15T20:45:00.092Z,991.93
2022-12-15T20:50:00.112Z,991.93
2022-12-15T20:55:00.104Z,991.85
2022-12-15T21:00:00.218Z,991.77
2022-12-15T21:05:00.110Z,991.65
2022-12-15T21:10:00.115Z,991.77
2022-12-15T21:15:00.109Z,991.8
2022-12-15T21:20:00.149Z,991.76
2022-12-15T21:25:00.103Z,992.22
2022-12-15T21:30:00.120Z,992.15
2022-12-15T21:35:00.122Z,992.12
2022-12-15T21:40:00.126Z,992.14
2022-12-15T21:45:00.120Z,992.05
2022-12-15T21:50:00.103Z,992.17
2022-12-15T21:55:00.113Z,992.15
2022-12-15T22:00:00.181Z,992.26
2022-12-15T22:05:00.094Z,992.18
2022-12-15T22:10:00.099Z,992.26
2022-12-15T22:15:00.103Z,992.24
2022-12-15T22:20:00.108Z,992.32
2022-12-15T22:25:00.123Z,992.27
2022-12-15T22:30:00.143Z,992.34
2022-12-15T22:35:00.091Z,992.43
2022-12-15T22:40:00.116Z,992.54
2022-12-15T22:45:00.100Z,992.63
2022-12-15T22:50:00.148Z,992.56
2022-12-15T22:55:00.115Z,992.59
2022-12-15T23:00:00.180Z,992.54
2022-12-15T23:05:00.112Z,992.59
2022-12-15T23:10:00.150Z,992.52
2022-12-15T23:15:00.101Z,992.55
2022-12-15T23:20:00.121Z,992.59
2022-12-15T23:25:00.124Z,992.51
2022-12-15T23:30:00.147Z,992.55
2022-12-15T23:35:00.094Z,992.53
2022-12-15T23:40:00.126Z,992.55
2022-12-15T23:45:00.180Z,992.57
2022-12-15T23:50:00.098Z,992.51
2022-12-15T23:55:00.112Z,992.41
